createdAt,value
2022-10-22T00:00:13.871Z,60.91
2022-10-22T00:01:13.919Z,61.71
2022-10-22T00:02:13.786Z,61.07
2022-10-22T00:03:13.819Z,61.71
2022-10-22T00:04:13.791Z,61.39
2022-10-22T00:05:13.851Z,60.59
2022-10-22T00:06:13.734Z,62.04
2022-10-22T00:07:13.715Z,56.56
2022-10-22T00:08:13.677Z,57.20
2022-10-22T00:09:13.796Z,61.71
2022-10-22T00:10:13.712Z,58.01
2022-10-22T00:11:13.640Z,62.36
2022-10-22T00:12:13.664Z,60.75
2022-10-22T00:13:13.604Z,60.75
2022-10-22T00:14:13.613Z,59.14
2022-10-22T00:15:13.623Z,60.26
2022-10-22T00:16:13.559Z,60.26
2022-10-22T00:17:13.568Z,57.36
2022-10-22T00:18:13.530Z,57.36
2022-10-22T00:19:13.496Z,58.33
2022-10-22T00:20:13.602Z,61.23
2022-10-22T00:21:13.544Z,59.78
2022-10-22T00:22:13.543Z,58.97
2022-10-22T00:23:13.434Z,56.88
2022-10-22T00:24:13.419Z,56.72
2022-10-22T00:25:13.430Z,58.65
2022-10-22T00:26:13.378Z,60.59
2022-10-22T00:27:13.380Z,56.40
2022-10-22T00:28:13.340Z,61.07
2022-10-22T00:29:13.337Z,57.36
2022-10-22T00:30:13.358Z,59.46
2022-10-22T00:31:14.318Z,58.97
2022-10-22T00:32:13.282Z,61.23
2022-10-22T00:33:13.258Z,54.95
2022-10-22T00:34:13.245Z,58.49
2022-10-22T00:35:13.270Z,61.55
2022-10-22T00:36:13.229Z,59.94
2022-10-22T00:37:13.205Z,59.94
2022-10-22T00:38:13.175Z,57.20
2022-10-22T00:39:13.204Z,59.14
2022-10-22T00:40:13.179Z,59.62
2022-10-22T00:41:13.151Z,62.84
2022-10-22T00:42:13.123Z,61.07
2022-10-22T00:43:13.103Z,55.11
2022-10-22T00:44:13.079Z,57.20
2022-10-22T00:45:13.049Z,60.10
2022-10-22T00:46:14.072Z,60.10
2022-10-22T00:47:13.024Z,61.55
2022-10-22T00:48:13.035Z,58.65
2022-10-22T00:49:13.008Z,60.10
2022-10-22T00:50:12.971Z,57.69
2022-10-22T00:51:12.994Z,60.75
2022-10-22T00:52:12.934Z,60.10
2022-10-22T00:53:12.943Z,59.46
2022-10-22T00:54:12.924Z,58.81
2022-10-22T00:55:12.922Z,58.49
2022-10-22T00:56:12.922Z,57.85
2022-10-22T00:57:12.870Z,57.04
2022-10-22T00:58:12.846Z,55.75
2022-10-22T00:59:12.821Z,58.33
2022-10-22T01:00:12.807Z,60.10
2022-10-22T01:01:12.836Z,57.20
2022-10-22T01:02:12.788Z,54.46
2022-10-22T01:03:12.756Z,57.85
2022-10-22T01:04:12.725Z,60.59
2022-10-22T01:05:12.733Z,58.65
2022-10-22T01:06:12.745Z,58.33
2022-10-22T01:07:12.682Z,58.17
2022-10-22T01:08:12.697Z,59.14
2022-10-22T01:09:12.649Z,53.50
2022-10-22T01:10:12.641Z,59.14
2022-10-22T01:11:12.651Z,59.94
2022-10-22T01:12:12.584Z,58.65
2022-10-22T01:13:12.582Z,55.75
2022-10-22T01:14:12.564Z,57.20
2022-10-22T01:15:12.538Z,54.46
2022-10-22T01:16:12.546Z,57.36
2022-10-22T01:17:12.549Z,55.43
2022-10-22T01:18:12.495Z,61.87
2022-10-22T01:19:12.466Z,61.23
2022-10-22T01:20:12.468Z,58.97
2022-10-22T01:21:12.480Z,57.20
2022-10-22T01:22:12.430Z,58.49
2022-10-22T01:23:12.441Z,60.42
2022-10-22T01:24:12.395Z,57.85
2022-10-22T01:25:12.369Z,58.33
2022-10-22T01:26:12.450Z,58.49
2022-10-22T01:27:12.339Z,60.42
2022-10-22T01:28:12.335Z,58.49
2022-10-22T01:29:12.320Z,60.91
2022-10-22T01:30:12.300Z,57.69
2022-10-22T01:31:12.304Z,57.04
2022-10-22T01:32:12.293Z,61.71
2022-10-22T01:33:12.255Z,59.46
2022-10-22T01:34:12.246Z,53.82
2022-10-22T01:35:12.228Z,54.62
2022-10-22T01:36:12.208Z,54.62
2022-10-22T01:37:13.189Z,59.30
2022-10-22T01:38:12.191Z,57.36
2022-10-22T01:39:12.153Z,60.26
2022-10-22T01:40:12.157Z,59.14
2022-10-22T01:41:12.166Z,56.88
2022-10-22T01:42:12.103Z,58.97
2022-10-22T01:43:12.094Z,58.97
2022-10-22T01:44:12.082Z,57.85
2022-10-22T01:45:12.052Z,59.30
2022-10-22T01:46:12.058Z,57.36
2022-10-22T01:47:12.027Z,57.04
2022-10-22T01:48:12.015Z,60.91
2022-10-22T01:49:12.005Z,60.26
2022-10-22T01:50:11.977Z,59.78
2022-10-22T01:51:11.992Z,55.91
2022-10-22T01:52:11.949Z,56.88
2022-10-22T01:53:11.916Z,55.11
2022-10-22T01:54:11.913Z,58.81
2022-10-22T01:55:11.897Z,58.81
2022-10-22T01:56:11.918Z,59.14
2022-10-22T01:57:11.895Z,61.07
2022-10-22T01:58:11.828Z,60.42
2022-10-22T01:59:11.822Z,60.91
2022-10-22T02:00:11.805Z,58.33
2022-10-22T02:01:11.845Z,60.10
2022-10-22T02:02:11.775Z,55.27
2022-10-22T02:03:11.752Z,59.62
2022-10-22T02:04:11.736Z,58.81
2022-10-22T02:05:11.715Z,58.81
2022-10-22T02:06:11.752Z,58.97
2022-10-22T02:07:11.673Z,60.42
2022-10-22T02:08:11.669Z,60.59
2022-10-22T02:09:11.698Z,58.49
2022-10-22T02:10:11.637Z,56.40
2022-10-22T02:11:11.653Z,58.81
2022-10-22T02:12:11.599Z,58.49
2022-10-22T02:13:11.589Z,59.62
2022-10-22T02:14:11.586Z,62.36
2022-10-22T02:15:11.573Z,60.26
2022-10-22T02:16:11.567Z,60.91
2022-10-22T02:17:11.531Z,60.91
2022-10-22T02:18:11.486Z,60.91
2022-10-22T02:19:11.529Z,57.69
2022-10-22T02:20:11.460Z,57.85
2022-10-22T02:21:11.497Z,58.49
2022-10-22T02:22:11.498Z,57.85
2022-10-22T02:23:11.431Z,56.88
2022-10-22T02:24:11.409Z,58.33
2022-10-22T02:25:11.380Z,60.59
2022-10-22T02:26:11.406Z,57.85
2022-10-22T02:27:11.340Z,55.59
2022-10-22T02:28:11.346Z,56.24
2022-10-22T02:29:11.309Z,57.20
2022-10-22T02:30:11.327Z,58.81
2022-10-22T02:31:11.311Z,58.49
2022-10-22T02:32:11.268Z,55.43
2022-10-22T02:33:11.242Z,59.62
2022-10-22T02:34:11.229Z,57.85
2022-10-22T02:35:11.231Z,58.17
2022-10-22T02:36:11.242Z,58.97
2022-10-22T02:37:11.179Z,56.88
2022-10-22T02:38:11.171Z,59.94
2022-10-22T02:39:11.215Z,57.69
2022-10-22T02:40:11.143Z,57.69
2022-10-22T02:41:11.149Z,58.81
2022-10-22T02:42:11.097Z,59.46
2022-10-22T02:43:11.094Z,61.87
2022-10-22T02:44:11.068Z,60.42
2022-10-22T02:45:11.059Z,61.07
2022-10-22T02:46:11.077Z,58.33
2022-10-22T02:47:11.030Z,56.88
2022-10-22T02:48:11.074Z,59.62
2022-10-22T02:49:11.992Z,58.65
2022-10-22T02:50:10.952Z,61.39
2022-10-22T02:51:11.004Z,59.46
2022-10-22T02:52:10.962Z,57.04
2022-10-22T02:53:10.914Z,59.46
2022-10-22T02:54:10.915Z,61.23
2022-10-22T02:55:10.867Z,57.69
2022-10-22T02:56:10.892Z,58.33
2022-10-22T02:57:10.919Z,57.36
2022-10-22T02:58:10.825Z,64.94
2022-10-22T02:59:10.790Z,62.84
2022-10-22T03:00:10.795Z,59.30
2022-10-22T03:01:13.757Z,60.59
2022-10-22T03:02:11.754Z,58.49
2022-10-22T03:03:10.758Z,60.42
2022-10-22T03:04:10.730Z,59.94
2022-10-22T03:05:10.699Z,58.49
2022-10-22T03:06:10.728Z,57.85
2022-10-22T03:07:10.656Z,58.81
2022-10-22T03:08:10.672Z,57.69
2022-10-22T03:09:10.645Z,56.24
2022-10-22T03:10:10.638Z,57.20
2022-10-22T03:11:10.638Z,57.85
2022-10-22T03:12:10.594Z,58.81
2022-10-22T03:13:10.575Z,56.56
2022-10-22T03:14:10.545Z,61.23
2022-10-22T03:15:11.524Z,63.16
2022-10-22T03:16:10.554Z,61.39
2022-10-22T03:17:10.523Z,61.71
2022-10-22T03:18:10.502Z,61.71
2022-10-22T03:19:10.481Z,60.59
2022-10-22T03:20:10.463Z,58.17
2022-10-22T03:21:10.484Z,57.52
2022-10-22T03:22:10.427Z,61.23
2022-10-22T03:23:10.397Z,60.26
2022-10-22T03:24:10.391Z,59.46
2022-10-22T03:25:10.374Z,61.71
2022-10-22T03:26:10.386Z,59.14
2022-10-22T03:27:10.332Z,58.49
2022-10-22T03:28:10.332Z,60.59
2022-10-22T03:29:10.292Z,59.94
2022-10-22T03:30:10.291Z,60.10
2022-10-22T03:31:10.307Z,60.10
2022-10-22T03:32:10.255Z,58.97
2022-10-22T03:33:10.249Z,59.94
2022-10-22T03:34:10.229Z,60.42
2022-10-22T03:35:10.191Z,61.55
2022-10-22T03:36:10.192Z,63.81
2022-10-22T03:37:10.196Z,62.52
2022-10-22T03:38:10.166Z,62.20
2022-10-22T03:39:10.142Z,61.55
2022-10-22T03:40:10.126Z,62.84
2022-10-22T03:41:10.108Z,61.39
2022-10-22T03:42:10.120Z,62.04
2022-10-22T03:43:10.088Z,57.85
2022-10-22T03:44:10.074Z,58.81
2022-10-22T03:45:10.077Z,58.33
2022-10-22T03:46:10.035Z,59.46
2022-10-22T03:47:10.062Z,57.36
2022-10-22T03:48:10.005Z,61.07
2022-10-22T03:49:10.978Z,60.59
2022-10-22T03:50:09.984Z,59.78
2022-10-22T03:51:09.955Z,61.87
2022-10-22T03:52:09.949Z,60.91
2022-10-22T03:53:09.920Z,59.46
2022-10-22T03:54:09.897Z,62.36
2022-10-22T03:55:09.885Z,61.23
2022-10-22T03:56:09.891Z,62.36
2022-10-22T03:57:09.872Z,63.33
2022-10-22T03:58:09.829Z,61.07
2022-10-22T03:59:09.818Z,59.94
2022-10-22T04:00:09.780Z,59.14
2022-10-22T04:01:09.834Z,62.52
2022-10-22T04:02:09.779Z,63.65
2022-10-22T04:03:09.729Z,59.46
2022-10-22T04:04:09.723Z,57.85
2022-10-22T04:05:09.771Z,53.17
2022-10-22T04:06:09.733Z,61.39
2022-10-22T04:07:09.735Z,57.36
2022-10-22T04:08:09.662Z,60.75
2022-10-22T04:09:09.698Z,63.81
2022-10-22T04:10:09.630Z,62.52
2022-10-22T04:11:09.607Z,63.00
2022-10-22T04:12:09.607Z,59.94
2022-10-22T04:13:09.560Z,58.01
2022-10-22T04:14:09.547Z,63.16
2022-10-22T04:15:09.538Z,61.87
2022-10-22T04:16:09.501Z,64.13
2022-10-22T04:17:09.536Z,61.23
2022-10-22T04:18:09.486Z,59.46
2022-10-22T04:19:09.464Z,61.55
2022-10-22T04:20:09.467Z,60.59
2022-10-22T04:21:09.428Z,63.81
2022-10-22T04:22:09.455Z,61.55
2022-10-22T04:23:09.397Z,61.87
2022-10-22T04:24:09.390Z,61.71
2022-10-22T04:25:09.373Z,61.87
2022-10-22T04:26:09.392Z,63.00
2022-10-22T04:27:09.366Z,58.65
2022-10-22T04:28:09.327Z,58.01
2022-10-22T04:29:11.984Z,63.97
2022-10-22T04:30:11.277Z,62.04
2022-10-22T04:31:10.298Z,63.00
2022-10-22T04:32:09.285Z,62.52
2022-10-22T04:33:09.234Z,61.55
2022-10-22T04:34:09.204Z,61.71
2022-10-22T04:35:09.216Z,62.68
2022-10-22T04:36:09.206Z,62.20
2022-10-22T04:37:09.196Z,62.84
2022-10-22T04:38:09.149Z,61.55
2022-10-22T04:39:09.135Z,63.00
2022-10-22T04:40:09.133Z,62.52
2022-10-22T04:41:09.116Z,63.33
2022-10-22T04:42:09.120Z,63.49
2022-10-22T04:43:09.063Z,63.49
2022-10-22T04:44:12.330Z,64.94
2022-10-22T04:45:11.046Z,62.52
2022-10-22T04:46:09.029Z,63.16
2022-10-22T04:47:09.034Z,64.13
2022-10-22T04:48:08.994Z,62.04
2022-10-22T04:49:08.954Z,56.88
2022-10-22T04:50:08.953Z,63.65
2022-10-22T04:51:08.922Z,61.55
2022-10-22T04:52:08.957Z,62.20
2022-10-22T04:53:08.895Z,64.13
2022-10-22T04:54:08.880Z,61.71
2022-10-22T04:55:08.877Z,62.52
2022-10-22T04:56:08.853Z,58.81
2022-10-22T04:57:08.858Z,61.39
2022-10-22T04:58:08.813Z,62.20
2022-10-22T04:59:08.797Z,62.68
2022-10-22T05:00:08.774Z,61.55
2022-10-22T05:01:08.858Z,61.39
2022-10-22T05:02:08.782Z,63.97
2022-10-22T05:03:08.735Z,62.20
2022-10-22T05:04:08.709Z,61.71
2022-10-22T05:05:08.711Z,65.10
2022-10-22T05:06:08.791Z,65.10
2022-10-22T05:07:08.699Z,62.84
2022-10-22T05:08:08.644Z,63.65
2022-10-22T05:09:08.753Z,65.42
2022-10-22T05:10:08.605Z,63.97
2022-10-22T05:11:08.588Z,64.61
2022-10-22T05:12:08.599Z,64.13
2022-10-22T05:13:08.564Z,62.68
2022-10-22T05:14:08.551Z,63.00
2022-10-22T05:15:08.543Z,61.71
2022-10-22T05:16:08.531Z,63.33
2022-10-22T05:17:08.560Z,63.33
2022-10-22T05:18:08.475Z,63.16
2022-10-22T05:19:08.449Z,62.68
2022-10-22T05:20:08.440Z,62.52
2022-10-22T05:21:08.431Z,63.00
2022-10-22T05:22:08.448Z,62.04
2022-10-22T05:23:08.408Z,64.29
2022-10-22T05:24:08.407Z,61.71
2022-10-22T05:25:08.369Z,61.87
2022-10-22T05:26:08.353Z,63.97
2022-10-22T05:27:08.406Z,64.13
2022-10-22T05:28:08.314Z,62.04
2022-10-22T05:29:08.301Z,65.42
2022-10-22T05:30:08.286Z,60.10
2022-10-22T05:31:08.258Z,62.84
2022-10-22T05:32:08.279Z,62.04
2022-10-22T05:33:08.214Z,63.49
2022-10-22T05:34:08.188Z,63.49
2022-10-22T05:35:08.170Z,66.71
2022-10-22T05:36:09.180Z,63.65
2022-10-22T05:37:08.178Z,63.49
2022-10-22T05:38:08.138Z,63.65
2022-10-22T05:39:08.122Z,63.97
2022-10-22T05:40:19.179Z,62.68
2022-10-22T05:41:10.059Z,63.81
2022-10-22T05:42:08.096Z,65.10
2022-10-22T05:43:08.032Z,66.39
2022-10-22T05:44:08.027Z,64.29
2022-10-22T05:45:08.018Z,62.52
2022-10-22T05:46:08.037Z,64.29
2022-10-22T05:47:08.008Z,62.04
2022-10-22T05:48:07.953Z,63.65
2022-10-22T05:49:07.974Z,62.20
2022-10-22T05:50:07.924Z,64.29
2022-10-22T05:51:07.899Z,63.00
2022-10-22T05:52:07.905Z,64.78
2022-10-22T05:53:07.876Z,63.00
2022-10-22T05:54:07.860Z,63.81
2022-10-22T05:55:07.858Z,63.49
2022-10-22T05:56:07.814Z,62.52
2022-10-22T05:57:07.845Z,64.78
2022-10-22T05:58:07.789Z,65.10
2022-10-22T05:59:07.774Z,66.55
2022-10-22T06:00:09.563Z,64.29
2022-10-22T06:01:07.734Z,64.94
2022-10-22T06:02:07.811Z,62.52
2022-10-22T06:03:07.709Z,65.10
2022-10-22T06:04:07.696Z,64.61
2022-10-22T06:05:07.672Z,63.65
2022-10-22T06:06:07.660Z,65.74
2022-10-22T06:07:07.672Z,62.84
2022-10-22T06:08:07.631Z,64.29
2022-10-22T06:09:07.654Z,63.00
2022-10-22T06:10:07.600Z,62.84
2022-10-22T06:11:07.575Z,64.13
2022-10-22T06:12:07.570Z,64.61
2022-10-22T06:13:07.536Z,62.04
2022-10-22T06:14:07.545Z,63.00
2022-10-22T06:15:07.486Z,63.00
2022-10-22T06:16:07.492Z,63.16
2022-10-22T06:17:07.492Z,63.49
2022-10-22T06:18:07.440Z,62.04
2022-10-22T06:19:07.421Z,62.04
2022-10-22T06:20:07.405Z,63.00
2022-10-22T06:21:07.421Z,57.36
2022-10-22T06:22:07.392Z,62.84
2022-10-22T06:23:07.347Z,63.65
2022-10-22T06:24:07.392Z,62.36
2022-10-22T06:25:07.358Z,60.42
2022-10-22T06:26:07.305Z,64.45
2022-10-22T06:27:07.316Z,65.10
2022-10-22T06:28:07.264Z,63.16
2022-10-22T06:29:07.245Z,63.49
2022-10-22T06:30:07.230Z,65.10
2022-10-22T06:31:07.223Z,61.23
2022-10-22T06:32:07.245Z,66.06
2022-10-22T06:33:07.191Z,63.16
2022-10-22T06:34:07.152Z,64.61
2022-10-22T06:35:07.159Z,62.68
2022-10-22T06:36:07.808Z,62.36
2022-10-22T06:37:07.161Z,62.68
2022-10-22T06:38:07.096Z,64.61
2022-10-22T06:39:07.079Z,64.61
2022-10-22T06:40:07.062Z,63.65
2022-10-22T06:41:07.042Z,65.58
2022-10-22T06:42:07.053Z,64.45
2022-10-22T06:43:07.013Z,64.45
2022-10-22T06:44:07.010Z,64.29
2022-10-22T06:45:06.995Z,62.68
2022-10-22T06:46:06.965Z,65.10
2022-10-22T06:47:06.985Z,63.49
2022-10-22T06:48:06.943Z,64.29
2022-10-22T06:49:06.918Z,63.33
2022-10-22T06:50:06.903Z,62.52
2022-10-22T06:51:06.871Z,62.20
2022-10-22T06:52:06.885Z,64.13
2022-10-22T06:53:06.938Z,62.68
2022-10-22T06:54:06.825Z,64.61
2022-10-22T06:55:06.818Z,65.58
2022-10-22T06:56:06.796Z,65.90
2022-10-22T06:57:06.819Z,64.45
2022-10-22T06:58:06.757Z,64.78
2022-10-22T06:59:06.761Z,64.13
2022-10-22T07:00:06.729Z,63.97
2022-10-22T07:01:06.735Z,63.16
2022-10-22T07:02:06.725Z,65.74
2022-10-22T07:03:06.680Z,63.97
2022-10-22T07:04:06.673Z,65.26
2022-10-22T07:05:06.653Z,65.10
2022-10-22T07:06:06.646Z,62.36
2022-10-22T07:07:06.630Z,63.49
2022-10-22T07:08:06.608Z,64.13
2022-10-22T07:09:06.647Z,63.97
2022-10-22T07:10:06.557Z,64.78
2022-10-22T07:11:06.543Z,61.87
2022-10-22T07:12:06.568Z,63.65
2022-10-22T07:13:06.509Z,64.94
2022-10-22T07:14:06.513Z,62.04
2022-10-22T07:15:06.493Z,61.55
2022-10-22T07:16:06.469Z,62.20
2022-10-22T07:17:06.470Z,62.84
2022-10-22T07:18:06.423Z,63.65
2022-10-22T07:19:06.405Z,62.04
2022-10-22T07:20:06.381Z,64.13
2022-10-22T07:21:06.381Z,63.49
2022-10-22T07:22:06.399Z,61.55
2022-10-22T07:23:06.324Z,63.49
2022-10-22T07:24:06.314Z,62.52
2022-10-22T07:25:07.257Z,63.65
2022-10-22T07:26:06.289Z,63.65
2022-10-22T07:27:09.394Z,61.87
2022-10-22T07:28:07.263Z,63.97
2022-10-22T07:29:06.225Z,63.16
2022-10-22T07:30:06.226Z,61.39
2022-10-22T07:31:06.216Z,61.23
2022-10-22T07:32:06.210Z,61.39
2022-10-22T07:33:06.179Z,61.55
2022-10-22T07:34:06.224Z,61.71
2022-10-22T07:35:06.134Z,61.71
2022-10-22T07:36:06.149Z,62.68
2022-10-22T07:37:06.147Z,63.49
2022-10-22T07:38:06.079Z,62.68
2022-10-22T07:39:06.093Z,62.36
2022-10-22T07:40:06.065Z,60.42
2022-10-22T07:41:06.035Z,59.46
2022-10-22T07:42:06.040Z,61.39
2022-10-22T07:43:05.997Z,62.20
2022-10-22T07:44:05.991Z,61.23
2022-10-22T07:45:06.003Z,62.52
2022-10-22T07:46:05.958Z,62.52
2022-10-22T07:47:06.013Z,61.55
2022-10-22T07:48:05.932Z,61.87
2022-10-22T07:49:05.904Z,62.52
2022-10-22T07:50:05.902Z,61.39
2022-10-22T07:51:05.908Z,62.20
2022-10-22T07:52:05.905Z,62.84
2022-10-22T07:53:05.864Z,61.55
2022-10-22T07:54:05.833Z,63.97
2022-10-22T07:55:05.827Z,61.55
2022-10-22T07:56:05.831Z,63.16
2022-10-22T07:57:05.835Z,63.49
2022-10-22T07:58:05.793Z,62.84
2022-10-22T07:59:05.773Z,65.10
2022-10-22T08:00:05.752Z,63.49
2022-10-22T08:01:05.922Z,63.49
2022-10-22T08:02:05.743Z,62.68
2022-10-22T08:03:05.697Z,63.49
2022-10-22T08:04:05.674Z,64.78
2022-10-22T08:05:05.671Z,62.36
2022-10-22T08:06:05.699Z,64.45
2022-10-22T08:07:05.667Z,65.10
2022-10-22T08:08:05.636Z,66.23
2022-10-22T08:09:05.652Z,61.55
2022-10-22T08:10:05.582Z,63.81
2022-10-22T08:11:05.562Z,64.78
2022-10-22T08:12:05.589Z,63.97
2022-10-22T08:13:05.533Z,65.42
2022-10-22T08:14:05.513Z,63.65
2022-10-22T08:15:05.496Z,65.10
2022-10-22T08:16:05.471Z,62.04
2022-10-22T08:17:05.480Z,64.13
2022-10-22T08:18:05.429Z,63.97
2022-10-22T08:19:05.446Z,63.00
2022-10-22T08:20:05.415Z,64.45
2022-10-22T08:21:05.449Z,62.52
2022-10-22T08:22:05.406Z,63.16
2022-10-22T08:23:05.412Z,62.20
2022-10-22T08:25:05.332Z,64.29
2022-10-22T08:26:05.311Z,63.81
2022-10-22T08:27:05.353Z,61.87
2022-10-22T08:28:05.295Z,63.33
2022-10-22T08:29:05.288Z,63.16
2022-10-22T08:30:05.259Z,61.87
2022-10-22T08:31:05.225Z,63.49
2022-10-22T08:32:05.255Z,63.65
2022-10-22T08:33:05.192Z,64.45
2022-10-22T08:34:05.184Z,65.42
2022-10-22T08:35:05.167Z,65.42
2022-10-22T08:36:05.144Z,61.07
2022-10-22T08:37:05.140Z,63.81
2022-10-22T08:38:05.111Z,65.26
2022-10-22T08:39:05.094Z,64.45
2022-10-22T08:40:05.099Z,64.61
2022-10-22T08:41:05.069Z,64.61
2022-10-22T08:42:05.073Z,64.78
2022-10-22T08:43:05.041Z,64.78
2022-10-22T08:44:05.018Z,67.03
2022-10-22T08:45:04.990Z,66.06
2022-10-22T08:46:04.997Z,64.61
2022-10-22T08:47:04.996Z,63.00
2022-10-22T08:48:04.963Z,65.58
2022-10-22T08:49:04.963Z,65.74
2022-10-22T08:50:04.962Z,67.35
2022-10-22T08:51:04.917Z,66.06
2022-10-22T08:52:04.930Z,66.71
2022-10-22T08:53:04.880Z,64.78
2022-10-22T08:54:04.846Z,65.58
2022-10-22T08:55:04.851Z,62.68
2022-10-22T08:56:04.805Z,64.13
2022-10-22T08:57:04.846Z,66.55
2022-10-22T08:58:04.794Z,65.26
2022-10-22T08:59:04.765Z,63.00
2022-10-22T09:00:04.741Z,64.61
2022-10-22T09:01:04.795Z,62.52
2022-10-22T09:02:04.739Z,63.49
2022-10-22T09:03:04.668Z,62.04
2022-10-22T09:04:04.672Z,65.10
2022-10-22T09:05:07.635Z,64.78
2022-10-22T09:06:05.654Z,63.49
2022-10-22T09:07:04.676Z,63.81
2022-10-22T09:08:04.601Z,64.13
2022-10-22T09:09:04.675Z,64.94
2022-10-22T09:10:04.564Z,63.49
2022-10-22T09:11:04.593Z,65.10
2022-10-22T09:12:04.562Z,64.45
2022-10-22T09:13:04.521Z,65.10
2022-10-22T09:14:04.592Z,63.97
2022-10-22T09:15:04.490Z,62.52
2022-10-22T09:16:04.475Z,64.94
2022-10-22T09:17:04.463Z,64.29
2022-10-22T09:18:04.433Z,65.10
2022-10-22T09:19:04.430Z,61.23
2022-10-22T09:20:04.405Z,62.68
2022-10-22T09:21:04.453Z,62.52
2022-10-22T09:22:04.392Z,62.84
2022-10-22T09:23:04.368Z,63.49
2022-10-22T09:24:04.338Z,63.81
2022-10-22T09:25:04.335Z,62.68
2022-10-22T09:26:04.287Z,64.29
2022-10-22T09:27:04.310Z,63.00
2022-10-22T09:28:04.248Z,63.65
2022-10-22T09:29:04.233Z,61.07
2022-10-22T09:30:04.235Z,61.87
2022-10-22T09:31:04.254Z,61.87
2022-10-22T09:32:04.211Z,61.55
2022-10-22T09:33:04.169Z,61.71
2022-10-22T09:34:04.160Z,61.07
2022-10-22T09:35:36.507Z,62.68
2022-10-22T09:36:04.104Z,65.26
2022-10-22T09:37:04.127Z,62.04
2022-10-22T09:38:04.073Z,61.87
2022-10-22T09:39:04.100Z,61.87
2022-10-22T09:40:04.075Z,62.68
2022-10-22T09:41:04.240Z,62.20
2022-10-22T09:42:04.041Z,62.84
2022-10-22T09:43:04.018Z,60.59
2022-10-22T09:44:04.013Z,61.39
2022-10-22T09:45:03.954Z,62.20
2022-10-22T09:46:03.967Z,61.07
2022-10-22T09:47:03.969Z,60.75
2022-10-22T09:48:03.918Z,61.39
2022-10-22T09:49:03.895Z,60.59
2022-10-22T09:50:03.885Z,60.42
2022-10-22T09:51:03.916Z,59.94
2022-10-22T09:52:03.896Z,60.26
2022-10-22T09:53:03.833Z,57.85
2022-10-22T09:54:03.826Z,59.62
2022-10-22T09:55:03.809Z,61.87
2022-10-22T09:56:03.784Z,60.75
2022-10-22T09:57:03.801Z,61.23
2022-10-22T09:58:03.749Z,58.97
2022-10-22T09:59:03.742Z,62.20
2022-10-22T10:00:03.740Z,61.39
2022-10-22T10:01:03.714Z,60.75
2022-10-22T10:02:13.721Z,61.23
2022-10-22T10:03:05.726Z,60.91
2022-10-22T10:04:08.403Z,62.36
2022-10-22T10:05:05.650Z,60.75
2022-10-22T10:06:06.138Z,61.55
2022-10-22T10:07:04.643Z,59.14
2022-10-22T10:08:03.603Z,61.71
2022-10-22T10:09:03.638Z,61.55
2022-10-22T10:10:03.562Z,62.68
2022-10-22T10:11:03.549Z,61.55
2022-10-22T10:12:03.565Z,61.07
2022-10-22T10:13:03.530Z,61.71
2022-10-22T10:14:03.504Z,61.87
2022-10-22T10:15:03.501Z,60.59
2022-10-22T10:16:03.469Z,61.71
2022-10-22T10:17:03.504Z,62.20
2022-10-22T10:18:03.427Z,61.39
2022-10-22T10:19:03.423Z,61.87
2022-10-22T10:20:04.296Z,60.91
2022-10-22T10:21:03.505Z,61.23
2022-10-22T10:22:03.399Z,60.26
2022-10-22T10:23:03.347Z,60.10
2022-10-22T10:24:03.342Z,60.91
2022-10-22T10:25:03.312Z,61.07
2022-10-22T10:26:03.304Z,61.87
2022-10-22T10:27:03.331Z,64.13
2022-10-22T10:28:03.278Z,59.62
2022-10-22T10:29:03.254Z,60.91
2022-10-22T10:30:03.236Z,60.10
2022-10-22T10:31:03.222Z,62.68
2022-10-22T10:32:03.242Z,61.39
2022-10-22T10:33:03.189Z,62.36
2022-10-22T10:34:03.166Z,60.91
2022-10-22T10:35:03.159Z,61.87
2022-10-22T10:36:03.148Z,60.91
2022-10-22T10:37:03.154Z,59.46
2022-10-22T10:38:03.106Z,61.55
2022-10-22T10:39:03.109Z,60.75
2022-10-22T10:40:03.078Z,61.23
2022-10-22T10:41:03.093Z,60.91
2022-10-22T10:42:03.068Z,60.75
2022-10-22T10:43:03.019Z,61.39
2022-10-22T10:44:03.006Z,60.42
2022-10-22T10:45:03.001Z,60.10
2022-10-22T10:46:02.979Z,59.14
2022-10-22T10:47:02.997Z,58.97
2022-10-22T10:48:02.956Z,61.55
2022-10-22T10:49:02.927Z,61.55
2022-10-22T10:50:02.917Z,59.46
2022-10-22T10:51:02.896Z,60.59
2022-10-22T10:52:02.907Z,61.23
2022-10-22T10:53:02.867Z,60.26
2022-10-22T10:54:02.847Z,58.49
2022-10-22T10:55:02.828Z,58.97
2022-10-22T10:56:02.864Z,58.49
2022-10-22T10:57:02.809Z,57.85
2022-10-22T10:58:02.786Z,57.20
2022-10-22T10:59:02.770Z,58.01
2022-10-22T11:00:02.762Z,58.65
2022-10-22T11:01:02.738Z,58.33
2022-10-22T11:02:02.751Z,59.46
2022-10-22T11:03:02.696Z,59.62
2022-10-22T11:04:02.677Z,55.91
2022-10-22T11:05:02.673Z,58.49
2022-10-22T11:06:02.675Z,59.46
2022-10-22T11:07:11.505Z,59.46
2022-10-22T11:08:04.628Z,58.97
2022-10-22T11:09:02.702Z,60.75
2022-10-22T11:10:02.592Z,59.94
2022-10-22T11:11:02.603Z,58.33
2022-10-22T11:12:02.557Z,60.10
2022-10-22T11:13:02.540Z,61.39
2022-10-22T11:14:02.523Z,59.78
2022-10-22T11:15:02.522Z,60.26
2022-10-22T11:16:02.532Z,61.23
2022-10-22T11:17:02.484Z,58.33
2022-10-22T11:18:02.466Z,58.33
2022-10-22T11:19:02.452Z,61.39
2022-10-22T11:20:02.425Z,60.42
2022-10-22T11:21:02.436Z,59.94
2022-10-22T11:22:02.393Z,56.24
2022-10-22T11:23:18.730Z,58.01
2022-10-22T11:24:04.373Z,59.46
2022-10-22T11:25:02.350Z,59.30
2022-10-22T11:26:02.362Z,57.85
2022-10-22T11:27:02.316Z,58.33
2022-10-22T11:28:07.815Z,58.01
2022-10-22T11:29:04.284Z,57.36
2022-10-22T11:30:02.273Z,59.46
2022-10-22T11:31:02.290Z,59.46
2022-10-22T11:32:02.237Z,60.10
2022-10-22T11:33:02.218Z,58.49
2022-10-22T11:34:09.971Z,56.72
2022-10-22T11:35:04.192Z,59.46
2022-10-22T11:36:02.212Z,58.49
2022-10-22T11:37:02.141Z,59.46
2022-10-22T11:38:03.147Z,58.81
2022-10-22T11:39:02.122Z,57.52
2022-10-22T11:40:02.109Z,59.94
2022-10-22T11:41:02.123Z,58.17
2022-10-22T11:42:02.262Z,61.39
2022-10-22T11:43:02.049Z,57.85
2022-10-22T11:44:02.031Z,59.62
2022-10-22T11:45:02.034Z,56.72
2022-10-22T11:46:02.030Z,60.26
2022-10-22T11:47:01.987Z,57.36
2022-10-22T11:48:01.966Z,60.75
2022-10-22T11:49:01.955Z,58.97
2022-10-22T11:50:01.950Z,58.65
2022-10-22T11:51:01.957Z,61.39
2022-10-22T11:52:04.353Z,60.75
2022-10-22T11:53:02.961Z,60.42
2022-10-22T11:54:01.875Z,60.59
2022-10-22T11:55:01.861Z,60.26
2022-10-22T11:56:01.866Z,60.59
2022-10-22T11:57:01.819Z,60.42
2022-10-22T11:58:01.799Z,61.39
2022-10-22T11:59:01.786Z,61.07
2022-10-22T12:00:01.773Z,59.14
2022-10-22T12:01:01.787Z,61.71
2022-10-22T12:02:01.732Z,62.04
2022-10-22T12:03:01.728Z,58.65
2022-10-22T12:04:01.703Z,57.36
2022-10-22T12:05:01.707Z,58.65
2022-10-22T12:06:01.702Z,58.97
2022-10-22T12:07:01.665Z,60.42
2022-10-22T12:08:01.635Z,59.46
2022-10-22T12:09:01.697Z,60.26
2022-10-22T12:10:01.614Z,59.62
2022-10-22T12:11:01.624Z,59.78
2022-10-22T12:12:01.569Z,58.81
2022-10-22T12:13:01.556Z,60.42
2022-10-22T12:14:01.532Z,57.20
2022-10-22T12:15:01.512Z,60.10
2022-10-22T12:16:01.572Z,60.42
2022-10-22T12:17:01.478Z,60.75
2022-10-22T12:18:01.503Z,59.46
2022-10-22T12:19:01.450Z,61.07
2022-10-22T12:20:02.440Z,60.10
2022-10-22T12:21:01.441Z,60.59
2022-10-22T12:22:01.400Z,59.62
2022-10-22T12:23:01.373Z,60.10
2022-10-22T12:24:01.459Z,60.26
2022-10-22T12:25:01.345Z,61.23
2022-10-22T12:26:01.350Z,57.04
2022-10-22T12:27:01.327Z,57.36
2022-10-22T12:28:01.291Z,59.78
2022-10-22T12:29:01.271Z,60.10
2022-10-22T12:30:01.279Z,58.65
2022-10-22T12:31:01.274Z,57.36
2022-10-22T12:32:01.215Z,59.78
2022-10-22T12:33:01.224Z,58.65
2022-10-22T12:34:01.180Z,60.75
2022-10-22T12:35:01.195Z,58.49
2022-10-22T12:36:01.190Z,58.97
2022-10-22T12:37:01.123Z,60.91
2022-10-22T12:38:01.112Z,61.55
2022-10-22T12:39:01.096Z,62.36
2022-10-22T12:40:01.075Z,61.23
2022-10-22T12:41:01.088Z,59.94
2022-10-22T12:42:01.056Z,60.10
2022-10-22T12:43:01.088Z,60.91
2022-10-22T12:44:01.005Z,60.26
2022-10-22T12:45:00.994Z,59.62
2022-10-22T12:46:01.005Z,61.23
2022-10-22T12:47:00.957Z,61.39
2022-10-22T12:48:00.929Z,58.17
2022-10-22T12:49:00.954Z,58.65
2022-10-22T12:50:00.922Z,60.75
2022-10-22T12:51:00.910Z,61.39
2022-10-22T12:52:00.864Z,59.30
2022-10-22T12:53:00.851Z,60.91